ADDS METAR Data INFO
IDs: Format: Raw Decoded Include TAF

Data at: 2043 UTC 16 Dec 2017

KVKY 162035Z AUTO 11014KT 10SM BKN020 OVC048 18/13 A3020 RMK A01
KVKY 162015Z AUTO 10015KT 10SM FEW020 OVC047 17/13 A3019 RMK A01
KVKY 161955Z AUTO 11016KT 10SM FEW018 OVC047 17/13 A3019 RMK A01
KVKY 161935Z AUTO 11019KT 10SM FEW018 OVC046 17/13 A3019 RMK A01
KVKY 161915Z AUTO 11018KT 10SM OVC046 17/13 A3019 RMK A01
KVKY 161855Z AUTO 11018KT 10SM FEW021 OVC046 17/12 A3020 RMK A01
KVKY 161835Z AUTO 10017KT 10SM BKN021 OVC044 17/12 A3021 RMK A01
KVKY 161815Z AUTO 09015KT 10SM BKN022 OVC043 17/12 A3022 RMK A01
KVKY 161755Z AUTO 10015KT 10SM BKN022 BKN027 OVC043 17/12 A3023 RMK A01
KVKY 161735Z AUTO 10015KT 10SM SCT021 OVC043 17/12 A3024 RMK A01
KVKY 161715Z AUTO 09015KT 10SM SCT021 OVC043 16/12 A3025 RMK A01
KVKY 161655Z AUTO 09014KT 10SM FEW022 OVC042 16/11 A3026 RMK A01
KVKY 161635Z AUTO 09015KT 10SM OVC042 16/11 A3027 RMK A01
KVKY 161615Z AUTO 07015KT 10SM OVC042 16/11 A3027 RMK A01
KVKY 161555Z AUTO 08015KT 10SM OVC041 15/11 A3028 RMK A01
KVKY 161535Z AUTO 08016KT 10SM OVC042 15/11 A3028 RMK A01
KVKY 161515Z AUTO 07016KT 10SM OVC042 15/11 A3028 RMK A01
KVKY 161455Z AUTO 07017KT 10SM OVC043 15/10 A3027 RMK A01
KVKY 161435Z AUTO 07016KT 10SM FEW035 OVC045 15/10 A3027 RMK A01
KVKY 161415Z AUTO 07016KT 10SM FEW025 BKN034 OVC044 14/10 A3027 RMK A01
KVKY 161355Z AUTO 07014KT 10SM FEW024 OVC033 14/09 A3027 RMK A01
KVKY 161335Z AUTO 07014KT 10SM OVC033 14/09 A3027 RMK A01
KVKY 161315Z AUTO 07013KT 10SM OVC035 14/09 A3026 RMK A01
KVKY 161255Z AUTO 07012KT 10SM OVC035 14/08 A3026 RMK A01
KVKY 161235Z AUTO 07012KT 10SM SCT024 OVC034 14/08 A3025 RMK A01
KVKY 161215Z AUTO 07013G18KT 10SM BKN025 BKN029 OVC044 14/08 A3025 RMK A01
KVKY 161155Z AUTO 07014KT 10SM SCT036 OVC043 14/07 A3024 RMK A01
KVKY 161135Z AUTO 07014KT 10SM OVC038 13/07 A3023 RMK A01
KVKY 161115Z AUTO 08014KT 10SM OVC040 13/07 A3023 RMK A01
KVKY 161055Z AUTO 06013KT 10SM OVC042 13/07 A3023 RMK A01
KVKY 161035Z AUTO 07010KT 10SM OVC043 13/07 A3023 RMK A01
KVKY 161015Z AUTO 08011KT 10SM OVC043 13/07 A3023 RMK A01
KVKY 160955Z AUTO 06011KT 10SM OVC045 12/07 A3023 RMK A01
KVKY 160935Z AUTO 07011KT 10SM OVC046 12/06 A3023 RMK A01
KVKY 160915Z AUTO 06015KT 10SM FEW025 OVC048 12/07 A3023 RMK A01
KVKY 160855Z AUTO 07013KT 10SM OVC047 12/06 A3023 RMK A01
KVKY 160835Z AUTO 07013G18KT 10SM BKN048 12/07 A3023 RMK A01
KVKY 160815Z AUTO 07014KT 10SM FEW025 FEW033 BKN050 12/07 A3023 RMK A01
KVKY 160755Z AUTO 05014KT 10SM BKN026 SCT036 BKN050 12/07 A3024 RMK A01
KVKY 160735Z AUTO 06012KT 10SM FEW027 SCT037 SCT055 12/06 A3024 RMK A01
KVKY 160715Z AUTO 05012KT 10SM SCT026 SCT031 13/06 A3024 RMK A01
KVKY 160655Z AUTO 06012KT 10SM SCT026 13/07 A3024 RMK A01
KVKY 160635Z AUTO 07013KT 10SM BKN025 BKN095 13/07 A3024 RMK A01
KVKY 160615Z AUTO 06013KT 10SM SCT025 SCT036 BKN095 13/07 A3025 RMK A01
KVKY 160555Z AUTO 05012KT 10SM SCT026 SCT035 BKN090 13/07 A3024 RMK A01
KVKY 160535Z AUTO 06013KT 10SM FEW025 FEW031 BKN090 13/07 A3025 RMK A01
KVKY 160515Z AUTO 05014KT 10SM OVC095 13/07 A3024 RMK A01
KVKY 160455Z AUTO 05013KT 10SM FEW026 OVC095 13/07 A3025 RMK A01
KVKY 160435Z AUTO 04013G18KT 10SM FEW025 OVC095 13/07 A3025 RMK A01
KVKY 160415Z AUTO 05014KT 10SM SCT024 OVC095 13/07 A3025 RMK A01
KVKY 160355Z AUTO 05013KT 10SM FEW021 FEW025 OVC095 13/07 A3024 RMK A01
KVKY 160335Z AUTO 06012KT 10SM OVC095 13/07 A3024 RMK A01
KVKY 160315Z AUTO 05014KT 10SM OVC090 13/07 A3023 RMK A01
KVKY 160255Z AUTO 05014KT 10SM OVC090 13/07 A3023 RMK A01
KVKY 160235Z AUTO 06014KT 10SM FEW027 OVC085 13/07 A3022 RMK A01
KVKY 160215Z AUTO 05014KT 10SM OVC080 14/08 A3021 RMK A01
KVKY 160155Z AUTO 03015KT 10SM OVC080 14/07 A3022 RMK A01
KVKY 160135Z AUTO 02012KT 10SM OVC080 14/07 A3022 RMK A01
KVKY 160115Z AUTO 04012G17KT 10SM OVC075 14/07 A3021 RMK A01
KVKY 160055Z AUTO 04011KT 10SM OVC075 14/08 A3020 RMK A01
KVKY 160035Z AUTO 03013KT 10SM OVC075 14/08 A3020 RMK A01
KVKY 160015Z AUTO 05013KT 10SM OVC075 14/07 A3020 RMK A01
KVKY 152355Z AUTO 03015KT 10SM FEW026 BKN075 OVC085 13/08 A3020 RMK A01
KVKY 152335Z AUTO 03016KT 10SM SCT070 OVC085 14/08 A3019 RMK A01
KVKY 152315Z AUTO 03015G21KT 10SM OVC075 14/07 A3018 RMK A01
KVKY 152255Z AUTO 03016KT 10SM SCT060 OVC070 14/07 A3019 RMK A01
KVKY 152235Z AUTO 04014KT 10SM BKN060 OVC065 13/08 A3018 RMK A01
KVKY 152215Z AUTO 04015KT 10SM OVC060 14/08 A3017 RMK A01
KVKY 152155Z AUTO 03016KT 10SM BKN060 BKN065 BKN080 13/08 A3017 RMK A01
KVKY 152135Z AUTO 03017KT 8SM FEW046 FEW055 SCT065 13/08 A3017 RMK A01
KVKY 152115Z AUTO 03018KT 10SM SCT060 BKN075 13/08 A3017 RMK A01
KVKY 152055Z AUTO 04017KT 10SM FEW060 SCT075 13/07 A3017 RMK A01
KVKY 152035Z AUTO 03018KT 10SM BKN075 13/08 A3017 RMK A01
KVKY 152015Z AUTO 03019KT 10SM SCT070 SCT080 13/07 A3016 RMK A01
KVKY 151955Z AUTO 04019G24KT 10SM FEW024 SCT080 14/07 A3016 RMK A01
KVKY 151935Z AUTO 02019KT 10SM FEW065 FEW085 14/08 A3016 RMK A01
KVKY 151915Z AUTO 03019KT 10SM FEW020 SCT036 SCT065 13/08 A3016 RMK A01
KVKY 151855Z AUTO 03018KT 10SM FEW021 BKN035 13/08 A3017 RMK A01
KVKY 151835Z AUTO 03019G24KT 10SM BKN035 OVC065 14/08 A3018 RMK A01
KVKY 151815Z AUTO 02019KT 10SM BKN035 OVC065 14/07 A3018 RMK A01
KVKY 151755Z AUTO 02018KT 10SM FEW021 BKN035 OVC060 14/08 A3018 RMK A01
KVKY 151735Z AUTO 01019KT 10SM FEW021 FEW035 BKN060 14/09 A3018 RMK A01
KVKY 151715Z AUTO 02016KT 10SM OVC060 15/09 A3017 RMK A01
KVKY 151655Z AUTO 01016KT 10SM FEW038 OVC060 15/09 A3018 RMK A01
KVKY 151635Z AUTO 01016KT 6SM HZ FEW027 BKN043 OVC055 15/10 A3018 RMK A01
KVKY 151615Z AUTO 01016KT 10SM OVC043 15/10 A3019 RMK A01
KVKY 151555Z AUTO 01014KT 8SM OVC039 16/10 A3018 RMK A01
KVKY 151535Z AUTO 02015KT 8SM OVC038 16/10 A3017 RMK A01
KVKY 151515Z AUTO 01016KT 9SM BKN038 OVC045 16/10 A3016 RMK A01
KVKY 151455Z AUTO 02016KT 10SM BKN042 BKN055 BKN060 16/09 A3015 RMK A01
KVKY 151435Z AUTO 02014KT 10SM BKN042 BKN050 BKN100 17/10 A3013 RMK A01
KVKY 151415Z AUTO 01016KT 10SM FEW070 SCT100 17/10 A3012 RMK A01
KVKY 151355Z AUTO 02012KT 10SM FEW045 SCT050 BKN070 17/09 A3011 RMK A01
KVKY 151335Z AUTO 02013KT 10SM BKN050 BKN065 OVC075 17/09 A3010 RMK A01
KVKY 151315Z AUTO 02013KT 10SM OVC050 18/10 A3008 RMK A01
KVKY 151255Z AUTO 03011KT 10SM OVC055 18/09 A3008 RMK A01
KVKY 151235Z AUTO 02010KT 10SM SCT048 OVC055 18/08 A3007 RMK A01
KVKY 151215Z AUTO 02009KT 10SM OVC048 18/03 A3006 RMK A01
KVKY 151155Z AUTO 35010KT 10SM BKN050 OVC055 18/03 A3006 RMK A01
KVKY 151135Z AUTO 36010KT 10SM OVC055 18/06 A3006 RMK A01
KVKY 151115Z AUTO 36011KT 10SM SCT049 BKN060 OVC085 18/07 A3005 RMK A01
KVKY 151055Z AUTO 36008KT 10SM FEW045 SCT060 BKN085 18/07 A3004 RMK A01
KVKY 151035Z AUTO 02009KT 10SM FEW032 SCT048 BKN075 18/08 A3003 RMK A01
KVKY 151015Z AUTO 01008KT 10SM FEW034 BKN049 OVC075 18/09 A3003 RMK A01
KVKY 150955Z AUTO 36011KT 10SM OVC050 18/12 A3004 RMK A01
KVKY 150935Z AUTO 35012KT 10SM OVC050 19/10 A3003 RMK A01
KVKY 150915Z AUTO 35009KT 10SM FEW040 OVC050 19/05 A3003 RMK A01
KVKY 150855Z AUTO 33008KT 10SM FEW035 FEW048 BKN055 19/09 A3003 RMK A01